KNJM

Bogue Field McAlf Airport

Swansboro, North Carolina, USA
METAR KNJM 232257Z AUTO 24009KT 3/4SM BR VV002 11/11 A2981 RMK AO2 SLP097 T01110111
Observed Flight Rules
Jan-23 @ 22:57 UTC (34 minutes ago) Instrument Flight Rules
Wind Visibility Clouds Conditions
240° at 9 knots 3/4 miles
  • Vertical visibility at 200' AGL
  • Mist
Temperatures Readings
Current 11°C / 52°F
Dewpoint 11°C / 52°F
Humidity 100%
Altimeter 29.81" Hg
Pressure 1009.7 hPa
Elevation 7
METAR KNJM 232257Z AUTO 24009KT 3/4SM BR VV002 11/11 A2981 RMK AO2 SLP097 T01110111
Observed Flight Rules
Jan-23 @ 22:57 UTC
(34 minutes ago)
LIFR
Wind Visibility
240° at 9 knots 3/4 miles
Clouds
  • Vertical visibility at 200' AGL
Conditions
  • Mist
Temperature Dewpoint
11°C / 52°F 11°C / 52°F
Humidity Altimeter Pressure
100% 29.81" Hg 1009.7 hPa